sensor_id;sensor_type;location;lat;lon;timestamp;pressure;altitude;pressure_sealevel;temperature;humidity
37764;BME280;23602;51.084;7.090;2023-05-27T00:01:37;101201.06;;;10.72;100.00
37764;BME280;23602;51.084;7.090;2023-05-27T00:04:03;101204.13;;;10.69;100.00
37764;BME280;23602;51.084;7.090;2023-05-27T00:06:28;101200.53;;;10.62;100.00
37764;BME280;23602;51.084;7.090;2023-05-27T00:08:53;101207.94;;;10.60;100.00
37764;BME280;23602;51.084;7.090;2023-05-27T00:11:19;101213.31;;;10.60;100.00
37764;BME280;23602;51.084;7.090;2023-05-27T00:13:44;101206.44;;;10.57;100.00
37764;BME280;23602;51.084;7.090;2023-05-27T00:16:10;101208.00;;;10.52;100.00
37764;BME280;23602;51.084;7.090;2023-05-27T00:18:36;101204.00;;;10.48;100.00
37764;BME280;23602;51.084;7.090;2023-05-27T00:21:01;101192.81;;;10.44;100.00
37764;BME280;23602;51.084;7.090;2023-05-27T00:23:27;101193.66;;;10.45;100.00
37764;BME280;23602;51.084;7.090;2023-05-27T00:25:52;101195.84;;;10.41;100.00
37764;BME280;23602;51.084;7.090;2023-05-27T00:28:18;101193.16;;;10.41;100.00
37764;BME280;23602;51.084;7.090;2023-05-27T00:30:43;101185.47;;;10.38;100.00
37764;BME280;23602;51.084;7.090;2023-05-27T00:33:08;101184.09;;;10.42;100.00
37764;BME280;23602;51.084;7.090;2023-05-27T00:35:33;101192.22;;;10.34;100.00
37764;BME280;23602;51.084;7.090;2023-05-27T00:37:59;101196.28;;;10.30;100.00
37764;BME280;23602;51.084;7.090;2023-05-27T00:40:25;101193.31;;;10.25;100.00
37764;BME280;23602;51.084;7.090;2023-05-27T00:42:51;101188.41;;;10.29;100.00
37764;BME280;23602;51.084;7.090;2023-05-27T00:45:17;101181.91;;;10.23;100.00
37764;BME280;23602;51.084;7.090;2023-05-27T00:47:42;101184.78;;;10.22;100.00
37764;BME280;23602;51.084;7.090;2023-05-27T00:50:07;101193.25;;;10.10;100.00
37764;BME280;23602;51.084;7.090;2023-05-27T00:52:33;101194.25;;;10.09;100.00
37764;BME280;23602;51.084;7.090;2023-05-27T00:54:59;101188.13;;;10.01;100.00
37764;BME280;23602;51.084;7.090;2023-05-27T00:57:24;101197.69;;;10.03;100.00
37764;BME280;23602;51.084;7.090;2023-05-27T00:59:49;101197.84;;;10.02;100.00
37764;BME280;23602;51.084;7.090;2023-05-27T01:02:15;101200.34;;;10.03;100.00
37764;BME280;23602;51.084;7.090;2023-05-27T01:04:40;101198.88;;;10.01;100.00
37764;BME280;23602;51.084;7.090;2023-05-27T01:10:10;101191.88;;;9.92;100.00
37764;BME280;23602;51.084;7.090;2023-05-27T01:12:43;101198.97;;;9.85;100.00
37764;BME280;23602;51.084;7.090;2023-05-27T01:15:11;101200.72;;;9.78;100.00
37764;BME280;23602;51.084;7.090;2023-05-27T01:17:37;101205.75;;;9.81;100.00
37764;BME280;23602;51.084;7.090;2023-05-27T01:20:07;101198.38;;;9.75;100.00
37764;BME280;23602;51.084;7.090;2023-05-27T01:22:35;101202.75;;;9.76;100.00
37764;BME280;23602;51.084;7.090;2023-05-27T01:25:01;101191.19;;;9.75;100.00
37764;BME280;23602;51.084;7.090;2023-05-27T01:27:26;101193.31;;;9.80;100.00
37764;BME280;23602;51.084;7.090;2023-05-27T01:29:52;101195.34;;;9.78;100.00
37764;BME280;23602;51.084;7.090;2023-05-27T01:32:21;101201.72;;;9.77;100.00
37764;BME280;23602;51.084;7.090;2023-05-27T01:34:54;101198.56;;;9.73;100.00
37764;BME280;23602;51.084;7.090;2023-05-27T01:37:23;101202.25;;;9.72;100.00
37764;BME280;23602;51.084;7.090;2023-05-27T01:39:49;101204.16;;;9.64;100.00
37764;BME280;23602;51.084;7.090;2023-05-27T01:42:15;101197.78;;;9.65;100.00
37764;BME280;23602;51.084;7.090;2023-05-27T01:44:40;101199.47;;;9.66;100.00
37764;BME280;23602;51.084;7.090;2023-05-27T01:47:06;101200.34;;;9.58;100.00
37764;BME280;23602;51.084;7.090;2023-05-27T01:49:31;101203.56;;;9.53;100.00
37764;BME280;23602;51.084;7.090;2023-05-27T01:51:57;101201.59;;;9.47;100.00
37764;BME280;23602;51.084;7.090;2023-05-27T01:54:22;101199.75;;;9.48;100.00
37764;BME280;23602;51.084;7.090;2023-05-27T01:56:47;101200.44;;;9.42;100.00
37764;BME280;23602;51.084;7.090;2023-05-27T01:59:12;101200.31;;;9.35;100.00
37764;BME280;23602;51.084;7.090;2023-05-27T02:01:38;101202.38;;;9.25;100.00
37764;BME280;23602;51.084;7.090;2023-05-27T02:04:03;101196.44;;;9.07;100.00
37764;BME280;23602;51.084;7.090;2023-05-27T02:06:29;101202.25;;;9.11;100.00
37764;BME280;23602;51.084;7.090;2023-05-27T02:08:54;101202.59;;;9.08;100.00
37764;BME280;23602;51.084;7.090;2023-05-27T02:11:19;101189.09;;;8.93;100.00
37764;BME280;23602;51.084;7.090;2023-05-27T02:13:45;101187.28;;;8.85;100.00
37764;BME280;23602;51.084;7.090;2023-05-27T02:16:10;101196.34;;;8.84;100.00
37764;BME280;23602;51.084;7.090;2023-05-27T02:18:37;101198.84;;;8.86;100.00
37764;BME280;23602;51.084;7.090;2023-05-27T02:21:02;101202.91;;;8.82;100.00
37764;BME280;23602;51.084;7.090;2023-05-27T02:23:31;101200.25;;;8.74;100.00
37764;BME280;23602;51.084;7.090;2023-05-27T02:25:56;101208.81;;;8.61;100.00
37764;BME280;23602;51.084;7.090;2023-05-27T02:28:21;101209.66;;;8.54;100.00
37764;BME280;23602;51.084;7.090;2023-05-27T02:30:47;101207.00;;;8.54;100.00
37764;BME280;23602;51.084;7.090;2023-05-27T02:33:12;101209.03;;;8.44;100.00
37764;BME280;23602;51.084;7.090;2023-05-27T02:35:40;101208.50;;;8.40;100.00
37764;BME280;23602;51.084;7.090;2023-05-27T02:38:05;101213.53;;;8.43;100.00
37764;BME280;23602;51.084;7.090;2023-05-27T02:40:30;101207.16;;;8.44;100.00
37764;BME280;23602;51.084;7.090;2023-05-27T02:42:56;101210.69;;;8.37;100.00
37764;BME280;23602;51.084;7.090;2023-05-27T02:45:21;101212.53;;;8.28;100.00
37764;BME280;23602;51.084;7.090;2023-05-27T02:47:47;101207.50;;;8.17;100.00
37764;BME280;23602;51.084;7.090;2023-05-27T02:50:12;101204.47;;;8.12;100.00
37764;BME280;23602;51.084;7.090;2023-05-27T02:52:37;101201.13;;;8.10;100.00
37764;BME280;23602;51.084;7.090;2023-05-27T02:55:03;101206.34;;;8.03;100.00
37764;BME280;23602;51.084;7.090;2023-05-27T02:57:28;101201.97;;;7.94;100.00
37764;BME280;23602;51.084;7.090;2023-05-27T02:59:53;101201.63;;;7.89;100.00
37764;BME280;23602;51.084;7.090;2023-05-27T03:02:18;101210.31;;;7.83;100.00
37764;BME280;23602;51.084;7.090;2023-05-27T03:04:44;101211.31;;;7.74;100.00
37764;BME280;23602;51.084;7.090;2023-05-27T03:07:09;101211.66;;;7.71;100.00
37764;BME280;23602;51.084;7.090;2023-05-27T03:09:35;101206.63;;;7.68;100.00
37764;BME280;23602;51.084;7.090;2023-05-27T03:12:00;101207.13;;;7.63;100.00
37764;BME280;23602;51.084;7.090;2023-05-27T03:14:25;101201.59;;;7.57;100.00
37764;BME280;23602;51.084;7.090;2023-05-27T03:16:50;101209.94;;;7.54;100.00
37764;BME280;23602;51.084;7.090;2023-05-27T03:19:16;101212.94;;;7.51;100.00
37764;BME280;23602;51.084;7.090;2023-05-27T03:21:41;101210.91;;;7.45;100.00
37764;BME280;23602;51.084;7.090;2023-05-27T03:24:06;101205.22;;;7.40;100.00
37764;BME280;23602;51.084;7.090;2023-05-27T03:26:31;101200.38;;;7.35;100.00
37764;BME280;23602;51.084;7.090;2023-05-27T03:28:57;101206.91;;;7.41;100.00
37764;BME280;23602;51.084;7.090;2023-05-27T03:31:22;101215.13;;;7.47;100.00
37764;BME280;23602;51.084;7.090;2023-05-27T03:33:47;101208.25;;;7.45;100.00
37764;BME280;23602;51.084;7.090;2023-05-27T03:36:14;101202.72;;;7.38;100.00
37764;BME280;23602;51.084;7.090;2023-05-27T03:38:39;101205.69;;;7.27;100.00
37764;BME280;23602;51.084;7.090;2023-05-27T03:41:04;101202.84;;;7.21;100.00
37764;BME280;23602;51.084;7.090;2023-05-27T03:43:30;101204.50;;;7.14;100.00
37764;BME280;23602;51.084;7.090;2023-05-27T03:45:55;101203.28;;;7.08;100.00
37764;BME280;23602;51.084;7.090;2023-05-27T03:48:20;101208.97;;;7.05;100.00
37764;BME280;23602;51.084;7.090;2023-05-27T03:50:46;101211.13;;;7.10;100.00
37764;BME280;23602;51.084;7.090;2023-05-27T03:53:11;101204.13;;;7.09;100.00
37764;BME280;23602;51.084;7.090;2023-05-27T03:55:36;101204.28;;;7.07;100.00
37764;BME280;23602;51.084;7.090;2023-05-27T03:58:01;101204.94;;;7.01;100.00
37764;BME280;23602;51.084;7.090;2023-05-27T04:00:27;101200.22;;;6.95;100.00
37764;BME280;23602;51.084;7.090;2023-05-27T04:02:53;101195.06;;;6.93;100.00
37764;BME280;23602;51.084;7.090;2023-05-27T04:05:18;101203.22;;;6.92;100.00
37764;BME280;23602;51.084;7.090;2023-05-27T04:07:44;101201.56;;;6.91;100.00
37764;BME280;23602;51.084;7.090;2023-05-27T04:10:09;101198.22;;;6.89;100.00
37764;BME280;23602;51.084;7.090;2023-05-27T04:12:35;101206.22;;;6.89;100.00
37764;BME280;23602;51.084;7.090;2023-05-27T04:15:00;101195.69;;;6.87;100.00
37764;BME280;23602;51.084;7.090;2023-05-27T04:17:26;101193.50;;;6.83;100.00
37764;BME280;23602;51.084;7.090;2023-05-27T04:19:51;101190.97;;;6.81;100.00
37764;BME280;23602;51.084;7.090;2023-05-27T04:22:16;101193.63;;;6.81;100.00
37764;BME280;23602;51.084;7.090;2023-05-27T04:24:45;101195.81;;;6.78;100.00
37764;BME280;23602;51.084;7.090;2023-05-27T04:27:10;101193.28;;;6.76;100.00
37764;BME280;23602;51.084;7.090;2023-05-27T04:29:37;101196.78;;;6.77;100.00
37764;BME280;23602;51.084;7.090;2023-05-27T04:32:03;101195.81;;;6.78;100.00
37764;BME280;23602;51.084;7.090;2023-05-27T04:34:28;101197.16;;;6.82;100.00
37764;BME280;23602;51.084;7.090;2023-05-27T04:36:53;101202.00;;;6.86;100.00
37764;BME280;23602;51.084;7.090;2023-05-27T04:39:19;101198.94;;;6.99;100.00
37764;BME280;23602;51.084;7.090;2023-05-27T04:41:44;101208.00;;;7.14;100.00
37764;BME280;23602;51.084;7.090;2023-05-27T04:44:10;101199.63;;;7.17;100.00
37764;BME280;23602;51.084;7.090;2023-05-27T04:46:36;101198.47;;;7.20;100.00
37764;BME280;23602;51.084;7.090;2023-05-27T04:49:03;101195.81;;;7.20;100.00
37764;BME280;23602;51.084;7.090;2023-05-27T04:51:29;101207.66;;;7.17;100.00
37764;BME280;23602;51.084;7.090;2023-05-27T04:53:54;101211.16;;;7.18;100.00
37764;BME280;23602;51.084;7.090;2023-05-27T04:56:21;101208.50;;;7.18;100.00
37764;BME280;23602;51.084;7.090;2023-05-27T04:58:46;101214.88;;;7.17;100.00
37764;BME280;23602;51.084;7.090;2023-05-27T05:01:13;101210.34;;;7.17;100.00
37764;BME280;23602;51.084;7.090;2023-05-27T05:03:45;101215.22;;;7.22;100.00
37764;BME280;23602;51.084;7.090;2023-05-27T05:06:29;101212.53;;;7.30;100.00
37764;BME280;23602;51.084;7.090;2023-05-27T05:08:54;101204.88;;;7.35;100.00
37764;BME280;23602;51.084;7.090;2023-05-27T05:11:20;101203.25;;;7.42;100.00
37764;BME280;23602;51.084;7.090;2023-05-27T05:13:46;101200.41;;;7.51;100.00
37764;BME280;23602;51.084;7.090;2023-05-27T05:16:11;101200.59;;;7.58;100.00
37764;BME280;23602;51.084;7.090;2023-05-27T05:18:36;101199.44;;;7.69;100.00
37764;BME280;23602;51.084;7.090;2023-05-27T05:21:02;101203.97;;;7.76;100.00
37764;BME280;23602;51.084;7.090;2023-05-27T05:23:27;101205.31;;;7.80;100.00
37764;BME280;23602;51.084;7.090;2023-05-27T05:25:52;101205.47;;;7.87;100.00
37764;BME280;23602;51.084;7.090;2023-05-27T05:28:23;101201.47;;;7.91;100.00
37764;BME280;23602;51.084;7.090;2023-05-27T05:30:48;101209.66;;;7.97;100.00
37764;BME280;23602;51.084;7.090;2023-05-27T05:33:13;101207.16;;;8.04;100.00
37764;BME280;23602;51.084;7.090;2023-05-27T05:35:39;101205.50;;;8.11;100.00
37764;BME280;23602;51.084;7.090;2023-05-27T05:38:04;101207.66;;;8.15;100.00
37764;BME280;23602;51.084;7.090;2023-05-27T05:40:29;101209.84;;;8.20;100.00
37764;BME280;23602;51.084;7.090;2023-05-27T05:42:55;101211.00;;;8.25;100.00
37764;BME280;23602;51.084;7.090;2023-05-27T05:45:20;101213.72;;;8.34;100.00
37764;BME280;23602;51.084;7.090;2023-05-27T05:47:45;101217.53;;;8.39;100.00
37764;BME280;23602;51.084;7.090;2023-05-27T05:50:10;101213.16;;;8.54;100.00
37764;BME280;23602;51.084;7.090;2023-05-27T05:52:36;101216.66;;;8.63;100.00
37764;BME280;23602;51.084;7.090;2023-05-27T05:55:01;101224.38;;;8.66;100.00
37764;BME280;23602;51.084;7.090;2023-05-27T05:57:26;101217.31;;;8.73;100.00
37764;BME280;23602;51.084;7.090;2023-05-27T05:59:56;101218.97;;;8.82;100.00
37764;BME280;23602;51.084;7.090;2023-05-27T06:02:21;101214.75;;;8.87;100.00
37764;BME280;23602;51.084;7.090;2023-05-27T06:04:46;101212.88;;;8.96;100.00
37764;BME280;23602;51.084;7.090;2023-05-27T06:07:12;101222.56;;;9.05;100.00
37764;BME280;23602;51.084;7.090;2023-05-27T06:09:37;101223.72;;;9.11;100.00
37764;BME280;23602;51.084;7.090;2023-05-27T06:12:02;101213.81;;;9.19;100.00
37764;BME280;23602;51.084;7.090;2023-05-27T06:14:28;101217.31;;;9.28;100.00
37764;BME280;23602;51.084;7.090;2023-05-27T06:16:53;101214.41;;;9.37;100.00
37764;BME280;23602;51.084;7.090;2023-05-27T06:19:19;101213.16;;;9.48;100.00
37764;BME280;23602;51.084;7.090;2023-05-27T06:21:45;101216.63;;;9.57;100.00
37764;BME280;23602;51.084;7.090;2023-05-27T06:24:10;101217.22;;;9.67;100.00
37764;BME280;23602;51.084;7.090;2023-05-27T06:26:35;101218.50;;;9.79;100.00
37764;BME280;23602;51.084;7.090;2023-05-27T06:29:01;101213.84;;;9.95;100.00
37764;BME280;23602;51.084;7.090;2023-05-27T06:31:26;101207.19;;;10.14;100.00
37764;BME280;23602;51.084;7.090;2023-05-27T06:33:52;101199.16;;;10.29;100.00
37764;BME280;23602;51.084;7.090;2023-05-27T06:36:17;101193.53;;;10.38;100.00
37764;BME280;23602;51.084;7.090;2023-05-27T06:38:43;101195.31;;;10.60;100.00
37764;BME280;23602;51.084;7.090;2023-05-27T06:41:09;101178.53;;;10.73;100.00
37764;BME280;23602;51.084;7.090;2023-05-27T06:43:35;101166.38;;;10.92;100.00
37764;BME280;23602;51.084;7.090;2023-05-27T06:46:01;101158.03;;;11.16;100.00
37764;BME280;23602;51.084;7.090;2023-05-27T06:48:26;101153.69;;;11.36;100.00
37764;BME280;23602;51.084;7.090;2023-05-27T06:50:52;101138.22;;;11.59;100.00
37764;BME280;23602;51.084;7.090;2023-05-27T06:53:17;101141.38;;;11.84;100.00
37764;BME280;23602;51.084;7.090;2023-05-27T06:55:43;101140.66;;;11.96;100.00
37764;BME280;23602;51.084;7.090;2023-05-27T06:58:08;101139.56;;;12.12;100.00
37764;BME280;23602;51.084;7.090;2023-05-27T07:00:33;101130.91;;;12.23;100.00
37764;BME280;23602;51.084;7.090;2023-05-27T07:02:59;101119.25;;;12.44;100.00
37764;BME280;23602;51.084;7.090;2023-05-27T07:05:25;101122.25;;;12.62;100.00
37764;BME280;23602;51.084;7.090;2023-05-27T07:07:51;101129.22;;;12.84;100.00
37764;BME280;23602;51.084;7.090;2023-05-27T07:10:19;101124.72;;;13.04;100.00
37764;BME280;23602;51.084;7.090;2023-05-27T07:12:45;101124.06;;;13.37;100.00
37764;BME280;23602;51.084;7.090;2023-05-27T07:15:10;101122.44;;;13.62;100.00
37764;BME280;23602;51.084;7.090;2023-05-27T07:17:36;101124.75;;;13.84;100.00
37764;BME280;23602;51.084;7.090;2023-05-27T07:20:02;101117.06;;;14.01;100.00
37764;BME280;23602;51.084;7.090;2023-05-27T07:22:28;101111.84;;;14.26;100.00
37764;BME280;23602;51.084;7.090;2023-05-27T07:24:54;101093.94;;;14.51;100.00
37764;BME280;23602;51.084;7.090;2023-05-27T07:27:19;101100.50;;;14.75;100.00
37764;BME280;23602;51.084;7.090;2023-05-27T07:29:45;101095.66;;;14.90;100.00
37764;BME280;23602;51.084;7.090;2023-05-27T07:32:10;101092.06;;;15.09;100.00
37764;BME280;23602;51.084;7.090;2023-05-27T07:34:36;101098.63;;;15.26;100.00
37764;BME280;23602;51.084;7.090;2023-05-27T07:37:01;101096.88;;;15.38;100.00
37764;BME280;23602;51.084;7.090;2023-05-27T07:39:27;101090.16;;;15.54;100.00
37764;BME280;23602;51.084;7.090;2023-05-27T07:41:52;101091.13;;;15.66;100.00
37764;BME280;23602;51.084;7.090;2023-05-27T07:44:18;101094.38;;;15.74;100.00
37764;BME280;23602;51.084;7.090;2023-05-27T07:46:46;101088.19;;;15.92;100.00
37764;BME280;23602;51.084;7.090;2023-05-27T07:49:12;101088.19;;;16.17;100.00
37764;BME280;23602;51.084;7.090;2023-05-27T07:51:37;101083.22;;;16.14;100.00
37764;BME280;23602;51.084;7.090;2023-05-27T07:54:03;101073.00;;;16.34;100.00
37764;BME280;23602;51.084;7.090;2023-05-27T07:56:28;101077.78;;;16.57;100.00
37764;BME280;23602;51.084;7.090;2023-05-27T07:58:54;101061.56;;;16.68;100.00
37764;BME280;23602;51.084;7.090;2023-05-27T08:01:20;101062.53;;;16.74;100.00
37764;BME280;23602;51.084;7.090;2023-05-27T08:03:45;101059.75;;;16.80;100.00
37764;BME280;23602;51.084;7.090;2023-05-27T08:06:10;101061.06;;;17.08;100.00
37764;BME280;23602;51.084;7.090;2023-05-27T08:08:39;101053.09;;;17.24;100.00
37764;BME280;23602;51.084;7.090;2023-05-27T08:11:12;101053.22;;;17.29;84.87
37764;BME280;23602;51.084;7.090;2023-05-27T08:13:38;101045.84;;;17.48;81.74
37764;BME280;23602;51.084;7.090;2023-05-27T08:16:03;101041.69;;;17.45;72.97
37764;BME280;23602;51.084;7.090;2023-05-27T08:18:31;101038.56;;;17.60;100.00
37764;BME280;23602;51.084;7.090;2023-05-27T08:20:58;101041.66;;;17.75;100.00
37764;BME280;23602;51.084;7.090;2023-05-27T08:23:27;101028.66;;;17.77;80.93
37764;BME280;23602;51.084;7.090;2023-05-27T08:25:52;101022.44;;;18.00;100.00
37764;BME280;23602;51.084;7.090;2023-05-27T08:30:56;101024.19;;;18.17;78.82
37764;BME280;23602;51.084;7.090;2023-05-27T08:33:21;101025.06;;;18.46;100.00
37764;BME280;23602;51.084;7.090;2023-05-27T08:35:53;101007.22;;;18.39;70.15
37764;BME280;23602;51.084;7.090;2023-05-27T08:38:18;101012.31;;;18.58;93.16
37764;BME280;23602;51.084;7.090;2023-05-27T08:40:44;101007.84;;;18.41;66.10
37764;BME280;23602;51.084;7.090;2023-05-27T08:43:18;101005.72;;;18.19;61.29
37764;BME280;23602;51.084;7.090;2023-05-27T08:45:45;101003.69;;;18.38;69.50
37764;BME280;23602;51.084;7.090;2023-05-27T08:48:11;101006.41;;;18.50;69.46
37764;BME280;23602;51.084;7.090;2023-05-27T08:50:39;100996.19;;;18.68;72.39
37764;BME280;23602;51.084;7.090;2023-05-27T08:53:05;100988.88;;;18.85;66.54
37764;BME280;23602;51.084;7.090;2023-05-27T08:55:30;100996.22;;;19.13;93.80
37764;BME280;23602;51.084;7.090;2023-05-27T08:57:57;100993.50;;;19.13;69.97
37764;BME280;23602;51.084;7.090;2023-05-27T09:00:25;100983.91;;;19.39;85.46
37764;BME280;23602;51.084;7.090;2023-05-27T09:02:51;100990.34;;;19.49;82.73
37764;BME280;23602;51.084;7.090;2023-05-27T09:05:24;100992.94;;;19.28;58.73
37764;BME280;23602;51.084;7.090;2023-05-27T09:08:06;100982.47;;;19.36;61.50
37764;BME280;23602;51.084;7.090;2023-05-27T09:10:40;100977.13;;;19.41;58.96
37764;BME280;23602;51.084;7.090;2023-05-27T09:16:19;100978.69;;;19.54;57.71
37764;BME280;23602;51.084;7.090;2023-05-27T09:18:44;100976.63;;;19.78;61.30
37764;BME280;23602;51.084;7.090;2023-05-27T09:21:19;100970.06;;;19.95;67.04
37764;BME280;23602;51.084;7.090;2023-05-27T09:24:05;100977.69;;;20.15;83.92
37764;BME280;23602;51.084;7.090;2023-05-27T09:29:42;100961.34;;;20.37;56.20
37764;BME280;23602;51.084;7.090;2023-05-27T09:32:07;100955.59;;;19.95;53.76
37764;BME280;23602;51.084;7.090;2023-05-27T09:34:41;100961.66;;;20.18;53.15
37764;BME280;23602;51.084;7.090;2023-05-27T09:37:16;100958.53;;;20.10;51.54
37764;BME280;23602;51.084;7.090;2023-05-27T09:39:51;100963.28;;;20.36;55.22
37764;BME280;23602;51.084;7.090;2023-05-27T09:45:22;100960.19;;;20.76;56.86
37764;BME280;23602;51.084;7.090;2023-05-27T09:47:49;100954.63;;;20.44;48.48
37764;BME280;23602;51.084;7.090;2023-05-27T09:50:26;100943.34;;;20.19;49.29
37764;BME280;23602;51.084;7.090;2023-05-27T09:53:20;100938.06;;;20.51;48.76
37764;BME280;23602;51.084;7.090;2023-05-27T09:55:52;100950.78;;;20.89;56.20
37764;BME280;23602;51.084;7.090;2023-05-27T09:58:27;100943.97;;;20.91;52.03
37764;BME280;23602;51.084;7.090;2023-05-27T10:01:02;100941.78;;;21.15;58.24
37764;BME280;23602;51.084;7.090;2023-05-27T10:03:49;100934.53;;;21.04;46.33
37764;BME280;23602;51.084;7.090;2023-05-27T10:06:17;100929.13;;;21.09;51.02
37764;BME280;23602;51.084;7.090;2023-05-27T10:08:49;100923.25;;;21.22;48.88
37764;BME280;23602;51.084;7.090;2023-05-27T10:11:16;100916.63;;;21.18;48.88
37764;BME280;23602;51.084;7.090;2023-05-27T10:13:45;100928.81;;;21.37;51.19
37764;BME280;23602;51.084;7.090;2023-05-27T10:16:25;100924.63;;;21.24;47.88
37764;BME280;23602;51.084;7.090;2023-05-27T10:19:08;100915.16;;;21.37;49.73
37764;BME280;23602;51.084;7.090;2023-05-27T10:22:06;100909.47;;;21.12;48.17
37764;BME280;23602;51.084;7.090;2023-05-27T10:24:51;100913.56;;;21.09;48.09
37764;BME280;23602;51.084;7.090;2023-05-27T10:27:26;100908.13;;;21.14;46.13
37764;BME280;23602;51.084;7.090;2023-05-27T10:30:00;100909.72;;;21.42;49.59
37764;BME280;23602;51.084;7.090;2023-05-27T10:32:41;100907.13;;;21.62;51.29
37764;BME280;23602;51.084;7.090;2023-05-27T10:35:25;100904.84;;;21.49;44.35
37764;BME280;23602;51.084;7.090;2023-05-27T10:38:03;100900.16;;;21.45;46.13
37764;BME280;23602;51.084;7.090;2023-05-27T10:41:07;100895.16;;;21.31;46.57
37764;BME280;23602;51.084;7.090;2023-05-27T10:43:31;100891.72;;;21.51;50.47
37764;BME280;23602;51.084;7.090;2023-05-27T10:46:17;100887.03;;;21.41;46.76
37764;BME280;23602;51.084;7.090;2023-05-27T10:55:22;100879.28;;;21.33;49.86
37764;BME280;23602;51.084;7.090;2023-05-27T10:57:48;100874.38;;;21.30;49.95
37764;BME280;23602;51.084;7.090;2023-05-27T11:00:16;100860.41;;;21.27;47.65
37764;BME280;23602;51.084;7.090;2023-05-27T11:09:04;100860.34;;;21.64;48.42
37764;BME280;23602;51.084;7.090;2023-05-27T11:11:40;100859.19;;;21.91;49.58
37764;BME280;23602;51.084;7.090;2023-05-27T11:14:25;100856.50;;;22.01;46.65
37764;BME280;23602;51.084;7.090;2023-05-27T11:20:01;100841.22;;;22.26;47.80
37764;BME280;23602;51.084;7.090;2023-05-27T11:22:50;100847.09;;;22.70;44.12
37764;BME280;23602;51.084;7.090;2023-05-27T11:25:42;100836.44;;;22.98;47.10
37764;BME280;23602;51.084;7.090;2023-05-27T11:28:16;100829.25;;;23.58;48.29
37764;BME280;23602;51.084;7.090;2023-05-27T11:30:51;100823.69;;;23.78;42.93
37764;BME280;23602;51.084;7.090;2023-05-27T11:33:35;100815.16;;;23.89;40.92
37764;BME280;23602;51.084;7.090;2023-05-27T11:36:14;100816.88;;;24.29;42.85
37764;BME280;23602;51.084;7.090;2023-05-27T11:39:03;100811.72;;;24.62;45.25
37764;BME280;23602;51.084;7.090;2023-05-27T11:41:56;100807.75;;;25.11;39.43
37764;BME280;23602;51.084;7.090;2023-05-27T11:44:29;100796.41;;;25.70;38.85
37764;BME280;23602;51.084;7.090;2023-05-27T11:46:58;100805.22;;;25.15;38.02
37764;BME280;23602;51.084;7.090;2023-05-27T11:52:15;100795.91;;;24.77;39.90
37764;BME280;23602;51.084;7.090;2023-05-27T11:54:51;100793.91;;;24.93;41.64
37764;BME280;23602;51.084;7.090;2023-05-27T11:57:32;100787.50;;;24.64;38.68
37764;BME280;23602;51.084;7.090;2023-05-27T11:59:57;100782.47;;;23.88;39.13
37764;BME280;23602;51.084;7.090;2023-05-27T12:02:31;100780.94;;;24.21;44.77
37764;BME280;23602;51.084;7.090;2023-05-27T12:05:05;100786.22;;;24.51;44.51
37764;BME280;23602;51.084;7.090;2023-05-27T12:07:35;100778.97;;;24.65;42.63
37764;BME280;23602;51.084;7.090;2023-05-27T12:10:15;100765.97;;;24.76;40.42
37764;BME280;23602;51.084;7.090;2023-05-27T12:12:50;100770.00;;;24.55;40.55
37764;BME280;23602;51.084;7.090;2023-05-27T12:15:25;100765.63;;;24.48;41.03
37764;BME280;23602;51.084;7.090;2023-05-27T12:20:49;100762.03;;;24.87;45.02
37764;BME280;23602;51.084;7.090;2023-05-27T12:23:25;100754.00;;;24.95;40.63
37764;BME280;23602;51.084;7.090;2023-05-27T12:25:51;100752.69;;;24.88;37.64
37764;BME280;23602;51.084;7.090;2023-05-27T12:28:30;100750.22;;;24.52;38.14
37764;BME280;23602;51.084;7.090;2023-05-27T12:31:37;100749.06;;;24.59;35.25
37764;BME280;23602;51.084;7.090;2023-05-27T12:34:05;100745.66;;;24.43;40.89
37764;BME280;23602;51.084;7.090;2023-05-27T12:36:53;100736.16;;;24.59;34.94
37764;BME280;23602;51.084;7.090;2023-05-27T12:39:32;100737.47;;;24.67;37.42
37764;BME280;23602;51.084;7.090;2023-05-27T12:42:06;100733.81;;;24.76;37.78
37764;BME280;23602;51.084;7.090;2023-05-27T12:44:39;100733.56;;;24.73;40.24
37764;BME280;23602;51.084;7.090;2023-05-27T12:47:21;100735.38;;;24.87;41.84
37764;BME280;23602;51.084;7.090;2023-05-27T12:50:15;100722.75;;;24.86;41.67
37764;BME280;23602;51.084;7.090;2023-05-27T12:52:49;100722.56;;;24.73;37.39
37764;BME280;23602;51.084;7.090;2023-05-27T12:55:18;100720.69;;;24.34;35.20
37764;BME280;23602;51.084;7.090;2023-05-27T13:54:07;100648.63;;;25.24;30.62
37764;BME280;23602;51.084;7.090;2023-05-27T14:08:20;100634.50;;;25.30;35.77
37764;BME280;23602;51.084;7.090;2023-05-27T14:10:57;100623.91;;;25.42;37.78
37764;BME280;23602;51.084;7.090;2023-05-27T14:17:06;100613.13;;;24.80;29.53
37764;BME280;23602;51.084;7.090;2023-05-27T14:20:03;100607.53;;;24.32;33.57
37764;BME280;23602;51.084;7.090;2023-05-27T14:22:42;100602.41;;;24.49;41.50
37764;BME280;23602;51.084;7.090;2023-05-27T14:28:30;100603.63;;;24.38;43.37
37764;BME280;23602;51.084;7.090;2023-05-27T14:33:57;100598.56;;;23.83;42.83
37764;BME280;23602;51.084;7.090;2023-05-27T14:36:40;100593.72;;;23.70;45.65
37764;BME280;23602;51.084;7.090;2023-05-27T14:45:14;100591.91;;;23.55;50.91
37764;BME280;23602;51.084;7.090;2023-05-27T14:47:47;100589.25;;;23.35;50.66
37764;BME280;23602;51.084;7.090;2023-05-27T14:50:32;100592.34;;;23.23;51.95
37764;BME280;23602;51.084;7.090;2023-05-27T14:56:26;100579.81;;;23.07;51.43
37764;BME280;23602;51.084;7.090;2023-05-27T14:58:54;100586.44;;;22.91;47.75
37764;BME280;23602;51.084;7.090;2023-05-27T15:01:36;100586.44;;;22.91;51.42